Portada
METAR-TAF:

METAR-TAF

Aeroports :

Sion, Suïssa

latitud: 46-13N, longitud: 007-20E, altitud: 482 m

Observació

L'informe es va fer fa 32 minuts, a les 15:50 UTC
Vent 1 kt amb direcció variable
Temperatura 4°C
Humitat 65%
Pressió 1026 hPa
Visibilitat 10 km o més
Escasses núvols a una alçada de 5000 ft

METAR: LSGS 101550Z VRB01KT 9999 FEW050 04/M02 Q1026

Hora: 17:22 (16:22 UTC)

Pronòstic

L'informe es va fer fa 1 hora i 57 minuts, a les 14:25 UTC
Pronòstic vàlid del 10 a les 15 UTC al 10 a les 24 UTC
Vent 4 kt del Oest/Sud-Oest
Visibilitat 10 km o més
sense núvols per sota de 1500 mi sense presència de cumulonimbus.

TAF: LSGS 101425Z 1015/1024 24004KT CAVOK

Observacions i pronòstics meteorològics de més de 4000 aeroports (METAR i TAF).

Les estacions disponibles són els punts grocs i vermells al mapa.

Posi el ratolí al punt desitjat per veure el nom de l'estació.

Feu clic per veure les observacions i els pronòstics meteorològics.

Per canviar el mapa: feu clic els botons verds amb una creu de color negre per apropar; al botó verd amb un guió per allunyar la imatge; o en les fletxes verdes per a mapes adjacents.


METAR-TAF: